createdAt,value
2022-09-20T00:01:43.067Z,64.20
2022-09-20T00:04:12.895Z,64.75
2022-09-20T00:06:41.275Z,63.87
2022-09-20T00:09:10.003Z,64.10
2022-09-20T00:11:38.588Z,63.94
2022-09-20T00:14:10.034Z,64.88
2022-09-20T00:16:42.034Z,64.34
2022-09-20T00:19:18.405Z,64.22
2022-09-20T00:21:46.962Z,64.28
2022-09-20T00:24:15.362Z,63.15
2022-09-20T00:26:43.869Z,62.93
2022-09-20T00:29:12.843Z,62.95
2022-09-20T00:31:43.127Z,62.79
2022-09-20T00:34:30.356Z,64.32
2022-09-20T00:36:59.044Z,62.78
2022-09-20T00:39:27.705Z,63.67
2022-09-20T00:41:56.044Z,63.87
2022-09-20T00:44:57.431Z,63.67
2022-09-20T00:47:40.080Z,62.87
2022-09-20T00:50:27.483Z,61.30
2022-09-20T00:52:59.695Z,61.82
2022-09-20T00:55:30.199Z,63.33
2022-09-20T00:57:59.935Z,63.33
2022-09-20T01:00:29.145Z,63.48
2022-09-20T01:03:00.442Z,63.33
2022-09-20T01:05:30.811Z,63.48
2022-09-20T01:07:59.731Z,63.40
2022-09-20T01:10:28.624Z,62.70
2022-09-20T01:12:57.130Z,64.39
2022-09-20T01:15:28.160Z,62.31
2022-09-20T01:18:00.377Z,62.91
2022-09-20T01:20:33.536Z,62.86
2022-09-20T01:23:28.272Z,63.81
2022-09-20T01:26:35.038Z,62.46
2022-09-20T01:29:14.206Z,62.63
2022-09-20T01:31:47.663Z,62.79
2022-09-20T01:34:19.280Z,62.83
2022-09-20T01:36:53.367Z,63.49
2022-09-20T01:39:32.999Z,62.61
2022-09-20T01:42:05.686Z,61.61
2022-09-20T01:44:41.760Z,63.04
2022-09-20T01:47:28.989Z,62.42
2022-09-20T01:50:04.118Z,62.62
2022-09-20T01:52:46.457Z,64.06
2022-09-20T01:55:51.975Z,63.95
2022-09-20T01:59:07.289Z,62.50
2022-09-20T02:02:07.724Z,62.48
2022-09-20T02:05:10.248Z,62.34
2022-09-20T02:08:10.154Z,62.90
2022-09-20T02:10:55.325Z,63.05
2022-09-20T02:13:31.872Z,63.09
2022-09-20T02:16:17.448Z,63.10
2022-09-20T02:19:07.932Z,62.73
2022-09-20T02:21:40.088Z,62.74
2022-09-20T02:24:23.314Z,61.71
2022-09-20T02:27:03.963Z,62.87
2022-09-20T02:29:43.627Z,63.54
2022-09-20T02:32:29.624Z,62.87
2022-09-20T02:35:40.634Z,61.68
2022-09-20T02:38:24.018Z,62.40
2022-09-20T02:41:07.357Z,60.85
2022-09-20T02:43:42.071Z,60.54
2022-09-20T02:46:18.403Z,61.75
2022-09-20T02:48:56.102Z,61.81
2022-09-20T02:51:32.485Z,61.82
2022-09-20T02:54:14.254Z,62.74
2022-09-20T02:56:54.417Z,63.46
2022-09-20T02:59:31.152Z,64.29
2022-09-20T03:02:09.345Z,63.99
2022-09-20T03:04:53.027Z,62.93
2022-09-20T03:07:33.998Z,62.10
2022-09-20T03:10:14.149Z,63.69
2022-09-20T03:12:54.243Z,62.02
2022-09-20T03:15:32.227Z,63.29
2022-09-20T03:18:09.608Z,63.31
2022-09-20T03:20:49.281Z,62.83
2022-09-20T03:23:38.437Z,62.96
2022-09-20T03:26:18.271Z,63.35
2022-09-20T03:28:59.336Z,63.46
2022-09-20T03:31:42.513Z,63.44
2022-09-20T03:34:24.460Z,63.18
2022-09-20T03:37:08.069Z,63.30
2022-09-20T03:40:18.286Z,62.79
2022-09-20T03:42:50.009Z,62.50
2022-09-20T03:45:50.412Z,61.11
2022-09-20T03:48:53.956Z,60.67
2022-09-20T03:51:33.753Z,61.39
2022-09-20T03:54:44.623Z,60.39
2022-09-20T03:57:35.918Z,61.89
2022-09-20T04:00:23.668Z,60.48
2022-09-20T04:03:04.604Z,61.37
2022-09-20T04:05:45.918Z,61.55
2022-09-20T04:08:25.246Z,61.85
2022-09-20T04:11:08.344Z,61.85
2022-09-20T04:13:40.469Z,61.57
2022-09-20T04:16:23.915Z,60.60
2022-09-20T04:18:57.872Z,60.71
2022-09-20T04:21:33.186Z,60.95
2022-09-20T04:24:09.995Z,61.36
2022-09-20T04:26:45.631Z,60.54
2022-09-20T04:29:34.815Z,59.94
2022-09-20T04:32:15.173Z,60.21
2022-09-20T04:35:05.263Z,61.73
2022-09-20T04:37:36.599Z,59.02
2022-09-20T04:40:16.690Z,60.57
2022-09-20T04:43:30.591Z,59.18
2022-09-20T04:46:35.755Z,60.09
2022-09-20T04:49:43.269Z,59.17
2022-09-20T04:52:38.239Z,60.60
2022-09-20T04:55:52.993Z,60.04
2022-09-20T04:58:50.805Z,57.22
2022-09-20T05:02:03.707Z,57.75
2022-09-20T05:05:16.208Z,57.66
2022-09-20T05:08:20.911Z,58.05
2022-09-20T05:11:15.947Z,57.94
2022-09-20T05:14:01.228Z,57.79
2022-09-20T05:16:46.741Z,57.03
2022-09-20T05:19:29.618Z,58.47
2022-09-20T05:22:27.512Z,60.40
2022-09-20T05:25:07.796Z,60.59
2022-09-20T05:27:44.519Z,60.13
2022-09-20T05:30:33.788Z,60.46
2022-09-20T05:33:13.480Z,60.70
2022-09-20T05:35:48.616Z,59.34
2022-09-20T05:41:15.852Z,60.33
2022-09-20T05:43:54.131Z,59.88
2022-09-20T05:46:35.075Z,56.95
2022-09-20T05:49:13.605Z,56.67
2022-09-20T05:51:59.801Z,56.87
2022-09-20T05:55:02.173Z,57.34
2022-09-20T05:57:46.126Z,56.37
2022-09-20T06:00:18.029Z,56.16
2022-09-20T06:02:55.309Z,56.74
2022-09-20T06:05:35.243Z,56.19
2022-09-20T06:08:27.551Z,55.26
2022-09-20T06:11:23.840Z,56.01
2022-09-20T06:14:06.236Z,54.49
2022-09-20T06:16:45.113Z,56.40
2022-09-20T06:19:24.920Z,55.46
2022-09-20T06:21:55.487Z,55.67
2022-09-20T06:24:36.835Z,55.99
2022-09-20T06:27:12.391Z,55.69
2022-09-20T06:29:45.963Z,53.56
2022-09-20T06:32:18.715Z,53.56
2022-09-20T06:34:48.796Z,54.50
2022-09-20T06:37:48.430Z,54.52
2022-09-20T06:40:54.461Z,55.39
2022-09-20T06:43:24.379Z,54.20
2022-09-20T06:45:52.984Z,52.27
2022-09-20T06:48:21.438Z,51.70
2022-09-20T06:50:50.020Z,53.00
2022-09-20T06:53:21.113Z,54.03
2022-09-20T06:55:50.106Z,54.13
2022-09-20T06:58:18.614Z,54.10
2022-09-20T07:00:48.507Z,53.76
2022-09-20T07:03:19.686Z,52.90
2022-09-20T07:05:48.416Z,53.68
2022-09-20T07:08:17.794Z,53.10
2022-09-20T07:10:46.361Z,51.29
2022-09-20T07:13:15.020Z,50.86
2022-09-20T07:15:43.544Z,48.56
2022-09-20T07:18:13.352Z,48.76
2022-09-20T07:20:41.988Z,48.48
2022-09-20T07:23:10.425Z,47.55
2022-09-20T07:25:39.177Z,50.32
2022-09-20T07:28:07.676Z,50.26
2022-09-20T07:30:36.222Z,50.02
2022-09-20T07:33:04.708Z,48.98
2022-09-20T07:35:34.685Z,48.96
2022-09-20T07:38:03.218Z,48.36
2022-09-20T07:40:32.187Z,48.57
2022-09-20T07:43:00.645Z,48.76
2022-09-20T07:45:29.471Z,48.26
2022-09-20T07:47:58.995Z,49.32
2022-09-20T07:50:27.557Z,48.89
2022-09-20T07:52:59.160Z,48.63
2022-09-20T07:55:27.756Z,49.04
2022-09-20T07:57:56.371Z,49.95
2022-09-20T08:00:24.794Z,49.28
2022-09-20T08:03:00.555Z,49.23
2022-09-20T08:05:29.064Z,50.72
2022-09-20T08:08:00.852Z,49.08
2022-09-20T08:10:29.443Z,48.52
2022-09-20T08:15:46.625Z,49.28
2022-09-20T08:18:17.181Z,48.98
2022-09-20T08:20:45.635Z,48.90
2022-09-20T08:23:51.435Z,48.32
2022-09-20T08:26:57.036Z,48.43
2022-09-20T08:30:02.923Z,46.02
2022-09-20T08:33:27.325Z,43.91
2022-09-20T08:36:17.945Z,44.12
2022-09-20T08:41:40.204Z,44.62
2022-09-20T08:44:17.048Z,44.52
2022-09-20T08:46:51.452Z,45.86
2022-09-20T08:49:27.238Z,45.57
2022-09-20T08:51:58.324Z,45.18
2022-09-20T08:54:32.325Z,46.35
2022-09-20T08:57:05.442Z,46.45
2022-09-20T08:59:34.785Z,45.70
2022-09-20T09:02:05.012Z,45.24
2022-09-20T09:04:37.422Z,44.15
2022-09-20T09:07:06.092Z,44.12
2022-09-20T09:09:38.051Z,43.61
2022-09-20T09:12:07.087Z,42.84
2022-09-20T09:14:55.237Z,41.89
2022-09-20T09:17:27.856Z,44.10
2022-09-20T09:20:00.481Z,44.59
2022-09-20T09:22:35.336Z,42.89
2022-09-20T09:25:25.931Z,44.35
2022-09-20T09:27:58.511Z,43.94
2022-09-20T09:30:30.617Z,43.98
2022-09-20T09:33:25.304Z,44.41
2022-09-20T09:35:56.951Z,43.03
2022-09-20T09:38:28.195Z,44.57
2022-09-20T09:40:59.421Z,44.35
2022-09-20T09:43:30.500Z,44.47
2022-09-20T09:46:18.654Z,46.06
2022-09-20T09:49:12.316Z,47.26
2022-09-20T09:51:43.482Z,46.76
2022-09-20T09:54:19.065Z,45.28
2022-09-20T09:56:58.335Z,45.29
2022-09-20T09:59:40.506Z,44.14
2022-09-20T10:02:24.556Z,43.90
2022-09-20T10:05:02.477Z,43.80
2022-09-20T10:07:39.804Z,44.63
2022-09-20T10:10:21.333Z,45.53
2022-09-20T10:13:03.464Z,46.08
2022-09-20T10:15:36.908Z,45.18
2022-09-20T10:18:22.476Z,44.75
2022-09-20T10:21:13.373Z,47.27
2022-09-20T10:24:06.301Z,45.91
2022-09-20T10:26:54.851Z,46.42
2022-09-20T10:29:31.564Z,45.15
2022-09-20T10:32:15.490Z,47.53
2022-09-20T10:35:09.669Z,47.00
2022-09-20T10:37:51.639Z,47.84
2022-09-20T10:40:50.862Z,47.82
2022-09-20T10:43:32.690Z,48.33
2022-09-20T10:46:31.441Z,47.86
2022-09-20T10:49:08.386Z,48.44
2022-09-20T10:51:48.752Z,47.41
2022-09-20T10:54:38.611Z,48.05
2022-09-20T10:57:26.726Z,47.10
2022-09-20T11:00:06.576Z,46.97
2022-09-20T11:02:47.293Z,46.21
2022-09-20T11:05:44.777Z,47.50
2022-09-20T11:08:19.038Z,47.30
2022-09-20T11:10:56.296Z,47.50
2022-09-20T11:13:33.079Z,44.28
2022-09-20T11:16:07.140Z,43.20
2022-09-20T11:18:45.367Z,43.04
2022-09-20T11:21:23.286Z,44.01
2022-09-20T11:23:58.346Z,44.58
2022-09-20T11:26:34.200Z,46.83
2022-09-20T11:29:10.511Z,48.94
2022-09-20T11:31:45.083Z,47.89
2022-09-20T11:34:21.703Z,47.45
2022-09-20T11:36:57.679Z,48.58
2022-09-20T11:39:31.692Z,48.84
2022-09-20T11:42:02.970Z,48.52
2022-09-20T11:44:32.377Z,49.03
2022-09-20T11:47:05.222Z,47.85
2022-09-20T11:49:42.126Z,49.43
2022-09-20T11:52:28.844Z,49.55
2022-09-20T11:55:19.180Z,50.32
2022-09-20T11:58:01.961Z,48.17
2022-09-20T12:00:34.724Z,48.28
2022-09-20T12:03:07.675Z,47.33
2022-09-20T12:05:39.374Z,47.78
2022-09-20T12:08:22.042Z,48.60
2022-09-20T12:10:59.672Z,47.91
2022-09-20T12:13:30.018Z,47.82
2022-09-20T12:16:05.419Z,47.92
2022-09-20T12:18:49.582Z,47.57
2022-09-20T12:21:20.853Z,46.75
2022-09-20T12:24:21.588Z,47.66
2022-09-20T12:26:52.269Z,48.26
2022-09-20T12:30:11.263Z,47.81
2022-09-20T12:32:50.793Z,46.59
2022-09-20T12:35:59.472Z,45.05
2022-09-20T12:39:04.486Z,45.45
2022-09-20T12:41:52.405Z,45.10
2022-09-20T12:44:33.896Z,46.57
2022-09-20T12:47:04.812Z,48.58
2022-09-20T12:49:56.366Z,49.17
2022-09-20T12:52:57.034Z,49.52
2022-09-20T12:55:50.283Z,48.73
2022-09-20T12:58:28.158Z,48.02
2022-09-20T13:01:34.229Z,49.97
2022-09-20T13:04:55.443Z,48.74
2022-09-20T13:07:45.292Z,48.57
2022-09-20T13:10:33.771Z,48.50
2022-09-20T13:13:15.308Z,48.57
2022-09-20T13:15:59.534Z,48.74
2022-09-20T13:18:29.753Z,47.54
2022-09-20T13:21:06.725Z,47.84
2022-09-20T13:23:48.050Z,49.12
2022-09-20T13:26:25.907Z,49.47
2022-09-20T13:28:57.172Z,49.34
2022-09-20T13:31:36.013Z,49.19
2022-09-20T13:34:21.879Z,50.24
2022-09-20T13:36:56.376Z,49.84
2022-09-20T13:39:36.975Z,50.74
2022-09-20T13:42:16.431Z,49.72
2022-09-20T13:44:45.359Z,49.29
2022-09-20T13:47:24.031Z,48.66
2022-09-20T13:50:00.622Z,49.25
2022-09-20T13:52:31.710Z,48.96
2022-09-20T13:55:01.705Z,48.67
2022-09-20T13:57:32.061Z,48.72
2022-09-20T14:00:05.285Z,49.29
2022-09-20T14:02:40.571Z,49.60
2022-09-20T14:05:18.341Z,48.72
2022-09-20T14:07:48.657Z,48.23
2022-09-20T14:10:37.727Z,48.73
2022-09-20T14:13:09.697Z,49.37
2022-09-20T14:15:43.817Z,49.81
2022-09-20T14:18:15.617Z,48.84
2022-09-20T14:20:49.270Z,48.92
2022-09-20T14:23:23.809Z,48.82
2022-09-20T14:26:23.049Z,48.39
2022-09-20T14:28:51.688Z,48.55
2022-09-20T14:31:24.928Z,48.55
2022-09-20T14:33:56.211Z,48.39
2022-09-20T14:36:27.682Z,49.18
2022-09-20T14:39:04.118Z,49.98
2022-09-20T14:41:36.925Z,49.18
2022-09-20T14:44:07.189Z,49.42
2022-09-20T14:46:40.076Z,49.69
2022-09-20T14:49:23.073Z,49.12
2022-09-20T14:51:55.207Z,50.12
2022-09-20T14:54:30.257Z,49.57
2022-09-20T14:57:30.407Z,49.85
2022-09-20T14:59:59.552Z,49.48
2022-09-20T15:02:28.464Z,48.76
2022-09-20T15:04:59.348Z,48.24
2022-09-20T15:07:28.453Z,49.27
2022-09-20T15:10:06.504Z,50.29
2022-09-20T15:12:36.652Z,49.81
2022-09-20T15:15:10.919Z,50.39
2022-09-20T15:17:39.669Z,50.59
2022-09-20T15:20:13.774Z,51.23
2022-09-20T15:22:43.203Z,51.18
2022-09-20T15:25:16.285Z,51.31
2022-09-20T15:27:47.696Z,51.65
2022-09-20T15:30:19.736Z,51.99
2022-09-20T15:32:49.008Z,51.91
2022-09-20T15:35:17.725Z,52.02
2022-09-20T15:37:46.607Z,51.31
2022-09-20T15:40:15.481Z,51.08
2022-09-20T15:42:44.317Z,50.66
2022-09-20T15:45:16.710Z,51.85
2022-09-20T15:47:50.529Z,51.65
2022-09-20T15:50:23.477Z,51.07
2022-09-20T15:52:59.955Z,51.33
2022-09-20T15:55:28.874Z,51.11
2022-09-20T15:57:57.479Z,53.36
2022-09-20T16:00:27.550Z,53.07
2022-09-20T16:02:57.301Z,53.80
2022-09-20T16:05:25.987Z,53.38
2022-09-20T16:07:54.621Z,53.51
2022-09-20T16:10:23.275Z,52.84
2022-09-20T16:12:52.089Z,53.49
2022-09-20T16:15:20.576Z,54.09
2022-09-20T16:18:08.939Z,54.88
2022-09-20T16:20:42.895Z,55.49
2022-09-20T16:23:17.351Z,54.70
2022-09-20T16:26:01.646Z,55.10
2022-09-20T16:28:37.535Z,54.34
2022-09-20T16:31:06.744Z,55.45
2022-09-20T16:33:36.748Z,55.76
2022-09-20T16:36:05.678Z,56.08
2022-09-20T16:38:35.110Z,54.56
2022-09-20T16:41:05.841Z,55.57
2022-09-20T16:43:35.345Z,55.48
2022-09-20T16:46:12.141Z,56.05
2022-09-20T16:48:42.756Z,56.51
2022-09-20T16:51:15.587Z,57.42
2022-09-20T16:53:55.827Z,57.52
2022-09-20T16:56:29.434Z,57.21
2022-09-20T16:58:58.320Z,57.45
2022-09-20T17:01:26.989Z,59.06
2022-09-20T17:04:05.597Z,59.41
2022-09-20T17:06:35.532Z,57.56
2022-09-20T17:09:10.323Z,57.33
2022-09-20T17:11:48.517Z,57.29
2022-09-20T17:14:28.144Z,57.94
2022-09-20T17:16:59.605Z,58.19
2022-09-20T17:19:30.012Z,57.96
2022-09-20T17:22:03.921Z,58.48
2022-09-20T17:24:36.050Z,58.03
2022-09-20T17:27:10.009Z,58.60
2022-09-20T17:29:45.639Z,58.53
2022-09-20T17:32:14.665Z,58.41
2022-09-20T17:34:46.726Z,57.87
2022-09-20T17:37:20.656Z,57.86
2022-09-20T17:39:50.457Z,58.28
2022-09-20T17:42:24.953Z,58.58
2022-09-20T17:44:55.665Z,58.80
2022-09-20T17:47:30.825Z,59.09
2022-09-20T17:50:01.502Z,59.43
2022-09-20T17:52:31.903Z,59.76
2022-09-20T17:55:05.479Z,60.49
2022-09-20T17:58:15.683Z,60.26
2022-09-20T18:01:12.334Z,59.19
2022-09-20T18:03:43.417Z,59.83
2022-09-20T18:06:19.383Z,59.45
2022-09-20T18:08:52.583Z,59.87
2022-09-20T18:11:23.373Z,60.38
2022-09-20T18:13:53.609Z,60.66
2022-09-20T18:16:23.439Z,59.69
2022-09-20T18:18:52.305Z,60.00
2022-09-20T18:21:23.936Z,59.88
2022-09-20T18:23:54.064Z,59.87
2022-09-20T18:26:26.769Z,59.99
2022-09-20T18:28:58.237Z,60.20
2022-09-20T18:31:30.069Z,60.52
2022-09-20T18:34:00.901Z,60.42
2022-09-20T18:36:35.162Z,60.82
2022-09-20T18:39:04.157Z,60.20
2022-09-20T18:41:33.845Z,58.88
2022-09-20T18:44:04.165Z,58.52
2022-09-20T18:46:32.572Z,56.83
2022-09-20T18:49:04.751Z,57.95
2022-09-20T18:51:39.192Z,57.92
2022-09-20T18:54:10.257Z,57.74
2022-09-20T18:56:39.327Z,57.63
2022-09-20T18:59:08.406Z,57.18
2022-09-20T19:01:45.358Z,58.15
2022-09-20T19:04:24.119Z,57.76
2022-09-20T19:07:00.667Z,58.82
2022-09-20T19:09:36.528Z,58.04
2022-09-20T19:12:08.655Z,57.37
2022-09-20T19:14:45.471Z,58.21
2022-09-20T19:17:17.719Z,57.75
2022-09-20T19:19:51.523Z,58.95
2022-09-20T19:22:28.220Z,58.51
2022-09-20T19:25:18.679Z,58.00
2022-09-20T19:27:51.863Z,59.40
2022-09-20T19:30:20.550Z,58.81
2022-09-20T19:32:48.960Z,58.60
2022-09-20T19:35:20.106Z,57.74
2022-09-20T19:38:02.349Z,58.40
2022-09-20T19:40:36.377Z,57.68
2022-09-20T19:43:13.301Z,57.02
2022-09-20T19:45:46.951Z,56.90
2022-09-20T19:48:18.598Z,57.62
2022-09-20T19:50:47.421Z,56.93
2022-09-20T19:53:17.795Z,56.75
2022-09-20T19:55:48.273Z,57.22
2022-09-20T19:58:16.693Z,56.78
2022-09-20T20:00:45.584Z,57.04
2022-09-20T20:03:14.032Z,57.24
2022-09-20T20:05:44.243Z,57.63
2022-09-20T20:08:15.800Z,57.98
2022-09-20T20:10:51.146Z,57.63
2022-09-20T20:13:42.081Z,57.58
2022-09-20T20:16:13.693Z,56.38
2022-09-20T20:18:46.495Z,57.63
2022-09-20T20:21:19.978Z,57.38
2022-09-20T20:23:58.860Z,57.45
2022-09-20T20:26:28.618Z,58.31
2022-09-20T20:28:56.761Z,58.91
2022-09-20T20:31:24.911Z,58.59
2022-09-20T20:33:54.742Z,58.61
2022-09-20T20:36:22.841Z,60.51
2022-09-20T20:38:53.138Z,60.84
2022-09-20T20:41:22.449Z,60.61
2022-09-20T20:43:56.227Z,60.97
2022-09-20T20:46:25.279Z,61.90
2022-09-20T20:48:53.525Z,60.77
2022-09-20T20:51:22.534Z,60.36
2022-09-20T20:53:51.696Z,65.00
2022-09-20T20:56:20.866Z,65.74
2022-09-20T20:58:50.060Z,63.34
2022-09-20T21:01:20.720Z,62.83
2022-09-20T21:03:49.885Z,62.64
2022-09-20T21:06:18.379Z,62.97
2022-09-20T21:08:49.538Z,62.22
2022-09-20T21:11:19.960Z,62.25
2022-09-20T21:13:49.124Z,60.91
2022-09-20T21:16:18.003Z,61.12
2022-09-20T21:18:48.740Z,62.41
2022-09-20T21:21:18.291Z,63.79
2022-09-20T21:23:47.357Z,62.58
2022-09-20T21:26:16.478Z,62.49
2022-09-20T21:28:45.844Z,62.85
2022-09-20T21:31:14.431Z,61.99
2022-09-20T21:33:43.335Z,62.06
2022-09-20T21:36:14.070Z,63.42
2022-09-20T21:38:42.609Z,64.47
2022-09-20T21:41:11.923Z,64.91
2022-09-20T21:43:41.981Z,63.81
2022-09-20T21:46:13.851Z,64.31
2022-09-20T21:48:42.324Z,62.93
2022-09-20T21:51:11.660Z,62.36
2022-09-20T21:53:41.337Z,62.14
2022-09-20T21:56:10.545Z,61.43
2022-09-20T21:58:40.114Z,60.62
2022-09-20T22:01:11.466Z,61.05
2022-09-20T22:03:41.004Z,61.56
2022-09-20T22:06:10.633Z,61.09
2022-09-20T22:08:39.310Z,60.52
2022-09-20T22:11:13.507Z,59.94
2022-09-20T22:13:43.386Z,60.04
2022-09-20T22:16:12.420Z,59.61
2022-09-20T22:18:41.842Z,59.52
2022-09-20T22:21:13.281Z,59.99
2022-09-20T22:23:41.876Z,59.59
2022-09-20T22:26:12.153Z,59.30
2022-09-20T22:28:40.855Z,59.45
2022-09-20T22:31:09.967Z,59.60
2022-09-20T22:33:41.852Z,59.61
2022-09-20T22:36:14.142Z,59.18
2022-09-20T22:38:42.544Z,58.89
2022-09-20T22:41:12.779Z,58.97
2022-09-20T22:43:41.869Z,58.98
2022-09-20T22:46:11.264Z,59.39
2022-09-20T22:48:40.110Z,59.52
2022-09-20T22:51:10.618Z,59.36
2022-09-20T22:53:38.890Z,59.09
2022-09-20T22:56:07.879Z,59.80
2022-09-20T22:58:38.643Z,59.05
2022-09-20T23:01:08.049Z,58.99
2022-09-20T23:03:36.435Z,59.22
2022-09-20T23:06:04.693Z,59.46
2022-09-20T23:08:33.460Z,59.30
2022-09-20T23:11:02.359Z,58.98
2022-09-20T23:13:30.703Z,59.29
2022-09-20T23:16:01.267Z,59.49
2022-09-20T23:18:29.647Z,59.31
2022-09-20T23:21:01.230Z,59.99
2022-09-20T23:23:29.611Z,60.10
2022-09-20T23:26:04.088Z,59.57
2022-09-20T23:28:32.221Z,59.16
2022-09-20T23:31:04.770Z,59.09
2022-09-20T23:33:33.228Z,59.13
2022-09-20T23:36:01.475Z,59.90
2022-09-20T23:38:29.632Z,60.16
2022-09-20T23:41:02.780Z,60.38
2022-09-20T23:43:31.043Z,60.05
2022-09-20T23:45:59.469Z,59.61
2022-09-20T23:48:29.073Z,59.47
2022-09-20T23:50:57.386Z,59.17
2022-09-20T23:53:25.901Z,59.79
2022-09-20T23:55:54.082Z,59.47
2022-09-20T23:58:22.251Z,59.33
